sensor_id;sensor_type;location;lat;lon;timestamp;temperature;humidity
2391;DHT22;22957;50.824;4.360;2023-04-03T00:00:50;6.40;99.90
2391;DHT22;22957;50.824;4.360;2023-04-03T00:03:18;5.80;99.90
2391;DHT22;22957;50.824;4.360;2023-04-03T00:05:45;6.00;99.90
2391;DHT22;22957;50.824;4.360;2023-04-03T00:08:11;6.10;99.90
2391;DHT22;22957;50.824;4.360;2023-04-03T00:10:37;6.20;99.90
2391;DHT22;22957;50.824;4.360;2023-04-03T00:13:04;6.80;99.90
2391;DHT22;22957;50.824;4.360;2023-04-03T00:15:30;5.70;99.90
2391;DHT22;22957;50.824;4.360;2023-04-03T00:17:55;6.00;99.90
2391;DHT22;22957;50.824;4.360;2023-04-03T00:20:22;5.70;99.90
2391;DHT22;22957;50.824;4.360;2023-04-03T00:22:48;5.70;99.90
2391;DHT22;22957;50.824;4.360;2023-04-03T00:25:13;6.00;99.90
2391;DHT22;22957;50.824;4.360;2023-04-03T00:27:40;6.20;99.90
2391;DHT22;22957;50.824;4.360;2023-04-03T00:30:09;5.90;99.90
2391;DHT22;22957;50.824;4.360;2023-04-03T00:32:35;5.70;99.90
2391;DHT22;22957;50.824;4.360;2023-04-03T00:35:01;6.10;99.90
2391;DHT22;22957;50.824;4.360;2023-04-03T00:37:28;5.90;99.90
2391;DHT22;22957;50.824;4.360;2023-04-03T00:39:54;5.90;99.90
2391;DHT22;22957;50.824;4.360;2023-04-03T00:42:21;5.50;99.90
2391;DHT22;22957;50.824;4.360;2023-04-03T00:47:17;6.10;99.90
2391;DHT22;22957;50.824;4.360;2023-04-03T00:49:44;5.90;99.90
2391;DHT22;22957;50.824;4.360;2023-04-03T00:52:15;5.90;99.90
2391;DHT22;22957;50.824;4.360;2023-04-03T00:54:42;5.90;99.90
2391;DHT22;22957;50.824;4.360;2023-04-03T00:57:09;5.80;99.90
2391;DHT22;22957;50.824;4.360;2023-04-03T00:59:39;5.50;99.90
2391;DHT22;22957;50.824;4.360;2023-04-03T01:02:07;5.10;99.90
2391;DHT22;22957;50.824;4.360;2023-04-03T01:07:09;5.90;99.90
2391;DHT22;22957;50.824;4.360;2023-04-03T01:09:36;6.40;99.90
2391;DHT22;22957;50.824;4.360;2023-04-03T01:12:29;6.30;99.90
2391;DHT22;22957;50.824;4.360;2023-04-03T01:15:10;5.80;99.90
2391;DHT22;22957;50.824;4.360;2023-04-03T01:26:02;6.10;99.90
2391;DHT22;22957;50.824;4.360;2023-04-03T01:28:31;5.60;99.90
2391;DHT22;22957;50.824;4.360;2023-04-03T01:31:15;5.90;99.90
2391;DHT22;22957;50.824;4.360;2023-04-03T01:33:44;5.90;99.90
2391;DHT22;22957;50.824;4.360;2023-04-03T01:36:14;5.90;99.90
2391;DHT22;22957;50.824;4.360;2023-04-03T01:38:41;6.20;99.90
2391;DHT22;22957;50.824;4.360;2023-04-03T01:41:08;5.50;99.90
2391;DHT22;22957;50.824;4.360;2023-04-03T01:43:35;5.60;99.90
2391;DHT22;22957;50.824;4.360;2023-04-03T01:46:00;5.80;99.90
2391;DHT22;22957;50.824;4.360;2023-04-03T01:48:26;5.40;99.90
2391;DHT22;22957;50.824;4.360;2023-04-03T01:50:52;5.40;99.90
2391;DHT22;22957;50.824;4.360;2023-04-03T01:53:17;4.90;99.90
2391;DHT22;22957;50.824;4.360;2023-04-03T01:55:44;5.60;99.90
2391;DHT22;22957;50.824;4.360;2023-04-03T01:58:11;5.40;99.90
2391;DHT22;22957;50.824;4.360;2023-04-03T02:00:37;5.20;99.90
2391;DHT22;22957;50.824;4.360;2023-04-03T02:03:03;5.20;99.90
2391;DHT22;22957;50.824;4.360;2023-04-03T02:05:29;4.90;99.90
2391;DHT22;22957;50.824;4.360;2023-04-03T02:07:57;5.40;99.90
2391;DHT22;22957;50.824;4.360;2023-04-03T02:10:22;5.50;99.90
2391;DHT22;22957;50.824;4.360;2023-04-03T02:12:49;4.90;99.90
2391;DHT22;22957;50.824;4.360;2023-04-03T02:15:16;5.80;99.90
2391;DHT22;22957;50.824;4.360;2023-04-03T02:17:42;5.80;99.90
2391;DHT22;22957;50.824;4.360;2023-04-03T02:20:08;5.50;99.90
2391;DHT22;22957;50.824;4.360;2023-04-03T02:22:34;6.40;99.90
2391;DHT22;22957;50.824;4.360;2023-04-03T02:25:00;5.30;99.90
2391;DHT22;22957;50.824;4.360;2023-04-03T02:27:26;5.50;99.90
2391;DHT22;22957;50.824;4.360;2023-04-03T02:29:51;6.10;99.90
2391;DHT22;22957;50.824;4.360;2023-04-03T02:32:17;6.00;99.90
2391;DHT22;22957;50.824;4.360;2023-04-03T02:34:43;5.40;99.90
2391;DHT22;22957;50.824;4.360;2023-04-03T02:37:08;5.10;99.90
2391;DHT22;22957;50.824;4.360;2023-04-03T02:39:34;5.30;99.90
2391;DHT22;22957;50.824;4.360;2023-04-03T02:42:00;5.30;99.90
2391;DHT22;22957;50.824;4.360;2023-04-03T02:44:26;5.20;99.90
2391;DHT22;22957;50.824;4.360;2023-04-03T02:46:51;4.80;99.90
2391;DHT22;22957;50.824;4.360;2023-04-03T02:49:17;4.70;99.90
2391;DHT22;22957;50.824;4.360;2023-04-03T02:51:42;4.00;99.90
2391;DHT22;22957;50.824;4.360;2023-04-03T02:54:08;4.10;99.90
2391;DHT22;22957;50.824;4.360;2023-04-03T02:56:34;3.80;99.90
2391;DHT22;22957;50.824;4.360;2023-04-03T02:59:00;4.00;99.90
2391;DHT22;22957;50.824;4.360;2023-04-03T03:01:26;4.10;99.90
2391;DHT22;22957;50.824;4.360;2023-04-03T03:03:54;3.80;99.90
2391;DHT22;22957;50.824;4.360;2023-04-03T03:06:20;3.40;99.90
2391;DHT22;22957;50.824;4.360;2023-04-03T03:08:45;4.00;99.90
2391;DHT22;22957;50.824;4.360;2023-04-03T03:11:11;4.10;99.90
2391;DHT22;22957;50.824;4.360;2023-04-03T03:13:37;4.00;99.90
2391;DHT22;22957;50.824;4.360;2023-04-03T03:16:02;3.80;99.90
2391;DHT22;22957;50.824;4.360;2023-04-03T03:18:29;3.90;99.90
2391;DHT22;22957;50.824;4.360;2023-04-03T03:20:56;3.70;99.90
2391;DHT22;22957;50.824;4.360;2023-04-03T03:23:25;4.00;99.90
2391;DHT22;22957;50.824;4.360;2023-04-03T03:25:59;4.20;99.90
2391;DHT22;22957;50.824;4.360;2023-04-03T03:28:25;4.30;99.90
2391;DHT22;22957;50.824;4.360;2023-04-03T03:30:51;4.40;99.90
2391;DHT22;22957;50.824;4.360;2023-04-03T03:33:17;5.00;99.90
2391;DHT22;22957;50.824;4.360;2023-04-03T03:35:44;4.70;99.90
2391;DHT22;22957;50.824;4.360;2023-04-03T03:38:10;4.30;99.90
2391;DHT22;22957;50.824;4.360;2023-04-03T03:40:36;4.20;99.90
2391;DHT22;22957;50.824;4.360;2023-04-03T03:43:02;4.60;99.90
2391;DHT22;22957;50.824;4.360;2023-04-03T03:45:28;4.60;99.90
2391;DHT22;22957;50.824;4.360;2023-04-03T03:47:54;4.80;99.90
2391;DHT22;22957;50.824;4.360;2023-04-03T03:50:19;4.40;99.90
2391;DHT22;22957;50.824;4.360;2023-04-03T03:52:45;4.50;99.90
2391;DHT22;22957;50.824;4.360;2023-04-03T03:55:11;4.30;99.90
2391;DHT22;22957;50.824;4.360;2023-04-03T03:57:37;4.10;99.90
2391;DHT22;22957;50.824;4.360;2023-04-03T04:00:03;3.70;99.90
2391;DHT22;22957;50.824;4.360;2023-04-03T04:02:29;4.20;99.90
2391;DHT22;22957;50.824;4.360;2023-04-03T04:04:55;4.20;99.90
2391;DHT22;22957;50.824;4.360;2023-04-03T04:07:21;4.20;99.90
2391;DHT22;22957;50.824;4.360;2023-04-03T04:09:47;4.70;99.90
2391;DHT22;22957;50.824;4.360;2023-04-03T04:12:13;4.50;99.90
2391;DHT22;22957;50.824;4.360;2023-04-03T04:14:39;5.00;99.90
2391;DHT22;22957;50.824;4.360;2023-04-03T04:17:05;4.90;99.90
2391;DHT22;22957;50.824;4.360;2023-04-03T04:19:31;5.40;99.90
2391;DHT22;22957;50.824;4.360;2023-04-03T04:21:57;4.60;99.90
2391;DHT22;22957;50.824;4.360;2023-04-03T04:24:24;4.60;99.90
2391;DHT22;22957;50.824;4.360;2023-04-03T04:26:49;4.70;99.90
2391;DHT22;22957;50.824;4.360;2023-04-03T04:29:15;4.00;99.90
2391;DHT22;22957;50.824;4.360;2023-04-03T04:31:40;5.00;99.90
2391;DHT22;22957;50.824;4.360;2023-04-03T04:34:06;4.60;99.90
2391;DHT22;22957;50.824;4.360;2023-04-03T04:36:32;4.50;99.90
2391;DHT22;22957;50.824;4.360;2023-04-03T04:38:57;4.90;99.90
2391;DHT22;22957;50.824;4.360;2023-04-03T04:41:23;4.80;99.90
2391;DHT22;22957;50.824;4.360;2023-04-03T04:43:50;4.50;99.90
2391;DHT22;22957;50.824;4.360;2023-04-03T04:46:16;4.50;99.90
2391;DHT22;22957;50.824;4.360;2023-04-03T04:48:42;4.60;99.90
2391;DHT22;22957;50.824;4.360;2023-04-03T04:51:08;4.90;99.90
2391;DHT22;22957;50.824;4.360;2023-04-03T04:53:33;4.60;99.90
2391;DHT22;22957;50.824;4.360;2023-04-03T04:55:59;4.60;99.90
2391;DHT22;22957;50.824;4.360;2023-04-03T04:58:25;4.80;99.90
2391;DHT22;22957;50.824;4.360;2023-04-03T05:00:59;4.10;99.90
2391;DHT22;22957;50.824;4.360;2023-04-03T05:03:25;4.40;99.90
2391;DHT22;22957;50.824;4.360;2023-04-03T05:05:50;4.80;99.90
2391;DHT22;22957;50.824;4.360;2023-04-03T05:08:16;4.80;99.90
2391;DHT22;22957;50.824;4.360;2023-04-03T05:10:42;5.10;99.90
2391;DHT22;22957;50.824;4.360;2023-04-03T05:13:08;5.30;99.90
2391;DHT22;22957;50.824;4.360;2023-04-03T05:15:34;5.50;99.90
2391;DHT22;22957;50.824;4.360;2023-04-03T05:18:00;5.50;99.90
2391;DHT22;22957;50.824;4.360;2023-04-03T05:20:26;5.10;99.90
2391;DHT22;22957;50.824;4.360;2023-04-03T05:22:51;5.30;99.90
2391;DHT22;22957;50.824;4.360;2023-04-03T05:25:17;5.40;99.90
2391;DHT22;22957;50.824;4.360;2023-04-03T05:27:43;4.90;99.90
2391;DHT22;22957;50.824;4.360;2023-04-03T05:30:08;5.40;99.90
2391;DHT22;22957;50.824;4.360;2023-04-03T05:32:34;5.20;99.90
2391;DHT22;22957;50.824;4.360;2023-04-03T05:35:00;4.60;99.90
2391;DHT22;22957;50.824;4.360;2023-04-03T05:37:25;4.70;99.90
2391;DHT22;22957;50.824;4.360;2023-04-03T05:39:51;4.40;99.90
2391;DHT22;22957;50.824;4.360;2023-04-03T05:42:17;4.50;99.90
2391;DHT22;22957;50.824;4.360;2023-04-03T05:44:42;6.10;99.90
2391;DHT22;22957;50.824;4.360;2023-04-03T05:47:08;6.70;99.90
2391;DHT22;22957;50.824;4.360;2023-04-03T05:49:34;7.80;99.90
2391;DHT22;22957;50.824;4.360;2023-04-03T05:52:00;7.20;99.90
2391;DHT22;22957;50.824;4.360;2023-04-03T05:54:29;7.10;99.90
2391;DHT22;22957;50.824;4.360;2023-04-03T05:56:55;6.60;99.90
2391;DHT22;22957;50.824;4.360;2023-04-03T05:59:21;6.00;99.90
2391;DHT22;22957;50.824;4.360;2023-04-03T06:01:47;5.70;99.90
2391;DHT22;22957;50.824;4.360;2023-04-03T06:04:15;5.40;99.90
2391;DHT22;22957;50.824;4.360;2023-04-03T06:06:52;5.20;99.90
2391;DHT22;22957;50.824;4.360;2023-04-03T06:09:21;6.20;99.90
2391;DHT22;22957;50.824;4.360;2023-04-03T06:11:47;6.70;99.90
2391;DHT22;22957;50.824;4.360;2023-04-03T06:14:12;8.20;99.90
2391;DHT22;22957;50.824;4.360;2023-04-03T06:16:38;7.90;99.90
2391;DHT22;22957;50.824;4.360;2023-04-03T06:19:05;8.90;99.90
2391;DHT22;22957;50.824;4.360;2023-04-03T06:21:32;9.00;99.90
2391;DHT22;22957;50.824;4.360;2023-04-03T06:23:57;10.30;99.90
2391;DHT22;22957;50.824;4.360;2023-04-03T06:26:23;10.60;99.90
2391;DHT22;22957;50.824;4.360;2023-04-03T06:28:49;9.80;99.90
2391;DHT22;22957;50.824;4.360;2023-04-03T06:31:14;10.40;99.90
2391;DHT22;22957;50.824;4.360;2023-04-03T06:33:40;10.50;99.90
2391;DHT22;22957;50.824;4.360;2023-04-03T06:36:06;9.20;99.90
2391;DHT22;22957;50.824;4.360;2023-04-03T06:38:33;8.20;99.90
2391;DHT22;22957;50.824;4.360;2023-04-03T06:41:00;7.90;99.90
2391;DHT22;22957;50.824;4.360;2023-04-03T06:43:26;8.10;99.90
2391;DHT22;22957;50.824;4.360;2023-04-03T06:45:52;7.80;99.90
2391;DHT22;22957;50.824;4.360;2023-04-03T06:48:19;8.90;99.90
2391;DHT22;22957;50.824;4.360;2023-04-03T06:50:46;8.50;99.90
2391;DHT22;22957;50.824;4.360;2023-04-03T06:53:12;7.80;99.90
2391;DHT22;22957;50.824;4.360;2023-04-03T06:55:37;10.10;99.90
2391;DHT22;22957;50.824;4.360;2023-04-03T06:58:03;11.10;99.90
2391;DHT22;22957;50.824;4.360;2023-04-03T07:00:30;12.00;99.90
2391;DHT22;22957;50.824;4.360;2023-04-03T07:02:56;13.80;99.90
2391;DHT22;22957;50.824;4.360;2023-04-03T07:05:23;11.50;99.90
2391;DHT22;22957;50.824;4.360;2023-04-03T07:07:49;11.10;99.90
2391;DHT22;22957;50.824;4.360;2023-04-03T07:10:15;11.30;99.90
2391;DHT22;22957;50.824;4.360;2023-04-03T07:12:41;10.60;99.90
2391;DHT22;22957;50.824;4.360;2023-04-03T07:15:08;13.00;99.90
2391;DHT22;22957;50.824;4.360;2023-04-03T07:17:34;11.10;99.90
2391;DHT22;22957;50.824;4.360;2023-04-03T07:20:01;10.20;99.90
2391;DHT22;22957;50.824;4.360;2023-04-03T07:22:28;12.30;99.90
2391;DHT22;22957;50.824;4.360;2023-04-03T07:24:54;9.80;99.90
2391;DHT22;22957;50.824;4.360;2023-04-03T07:27:23;8.70;99.90
2391;DHT22;22957;50.824;4.360;2023-04-03T07:29:52;9.90;99.90
2391;DHT22;22957;50.824;4.360;2023-04-03T07:32:18;11.90;99.90
2391;DHT22;22957;50.824;4.360;2023-04-03T07:34:44;8.30;99.90
2391;DHT22;22957;50.824;4.360;2023-04-03T07:37:10;8.00;99.90
2391;DHT22;22957;50.824;4.360;2023-04-03T07:39:35;11.20;99.90
2391;DHT22;22957;50.824;4.360;2023-04-03T07:42:01;11.10;99.90
2391;DHT22;22957;50.824;4.360;2023-04-03T07:44:30;10.30;99.90
2391;DHT22;22957;50.824;4.360;2023-04-03T07:46:56;8.60;99.90
2391;DHT22;22957;50.824;4.360;2023-04-03T07:49:22;7.70;99.90
2391;DHT22;22957;50.824;4.360;2023-04-03T07:51:51;7.40;99.90
2391;DHT22;22957;50.824;4.360;2023-04-03T07:54:18;7.50;99.90
2391;DHT22;22957;50.824;4.360;2023-04-03T07:56:43;7.30;99.90
2391;DHT22;22957;50.824;4.360;2023-04-03T07:59:09;7.10;99.90
2391;DHT22;22957;50.824;4.360;2023-04-03T08:01:36;8.40;99.90
2391;DHT22;22957;50.824;4.360;2023-04-03T08:04:02;8.10;99.90
2391;DHT22;22957;50.824;4.360;2023-04-03T08:06:28;7.40;99.90
2391;DHT22;22957;50.824;4.360;2023-04-03T08:08:55;7.90;99.90
2391;DHT22;22957;50.824;4.360;2023-04-03T08:11:21;9.70;99.90
2391;DHT22;22957;50.824;4.360;2023-04-03T08:13:47;8.20;99.90
2391;DHT22;22957;50.824;4.360;2023-04-03T08:16:18;7.70;99.90
2391;DHT22;22957;50.824;4.360;2023-04-03T08:18:45;7.00;99.90
2391;DHT22;22957;50.824;4.360;2023-04-03T08:21:12;9.30;99.90
2391;DHT22;22957;50.824;4.360;2023-04-03T08:23:38;9.00;99.90
2391;DHT22;22957;50.824;4.360;2023-04-03T08:26:22;8.80;99.90
2391;DHT22;22957;50.824;4.360;2023-04-03T08:28:50;8.80;99.90
2391;DHT22;22957;50.824;4.360;2023-04-03T08:31:17;7.10;99.90
2391;DHT22;22957;50.824;4.360;2023-04-03T08:33:44;8.20;99.90
2391;DHT22;22957;50.824;4.360;2023-04-03T08:36:25;8.10;99.90
2391;DHT22;22957;50.824;4.360;2023-04-03T08:38:53;8.50;99.90
2391;DHT22;22957;50.824;4.360;2023-04-03T08:41:38;7.90;99.90
2391;DHT22;22957;50.824;4.360;2023-04-03T08:44:15;7.60;99.90
2391;DHT22;22957;50.824;4.360;2023-04-03T08:46:54;10.20;99.90
2391;DHT22;22957;50.824;4.360;2023-04-03T08:49:33;9.40;99.90
2391;DHT22;22957;50.824;4.360;2023-04-03T08:52:02;8.20;99.90
2391;DHT22;22957;50.824;4.360;2023-04-03T08:55:02;10.00;99.90
2391;DHT22;22957;50.824;4.360;2023-04-03T08:57:33;10.20;99.90
2391;DHT22;22957;50.824;4.360;2023-04-03T09:00:13;9.10;99.90
2391;DHT22;22957;50.824;4.360;2023-04-03T09:02:44;8.40;99.90
2391;DHT22;22957;50.824;4.360;2023-04-03T09:05:20;8.60;99.90
2391;DHT22;22957;50.824;4.360;2023-04-03T09:08:04;9.70;99.90
2391;DHT22;22957;50.824;4.360;2023-04-03T09:10:34;9.70;99.90
2391;DHT22;22957;50.824;4.360;2023-04-03T09:13:25;11.40;99.90
2391;DHT22;22957;50.824;4.360;2023-04-03T09:15:54;11.10;99.90
2391;DHT22;22957;50.824;4.360;2023-04-03T09:18:29;8.50;99.90
2391;DHT22;22957;50.824;4.360;2023-04-03T09:21:29;8.70;99.90
2391;DHT22;22957;50.824;4.360;2023-04-03T09:24:00;8.90;99.90
2391;DHT22;22957;50.824;4.360;2023-04-03T09:26:33;10.30;99.90
2391;DHT22;22957;50.824;4.360;2023-04-03T09:29:05;11.60;99.90
2391;DHT22;22957;50.824;4.360;2023-04-03T09:31:39;8.70;99.90
2391;DHT22;22957;50.824;4.360;2023-04-03T09:34:23;11.20;99.90
2391;DHT22;22957;50.824;4.360;2023-04-03T09:36:51;13.00;99.90
2391;DHT22;22957;50.824;4.360;2023-04-03T09:39:23;10.60;99.90
2391;DHT22;22957;50.824;4.360;2023-04-03T09:42:14;9.10;99.90
2391;DHT22;22957;50.824;4.360;2023-04-03T09:44:48;8.90;99.90
2391;DHT22;22957;50.824;4.360;2023-04-03T09:50:18;9.20;99.90
2391;DHT22;22957;50.824;4.360;2023-04-03T09:52:49;8.60;99.90
2391;DHT22;22957;50.824;4.360;2023-04-03T09:55:20;8.50;99.90
2391;DHT22;22957;50.824;4.360;2023-04-03T09:57:53;9.10;99.90
2391;DHT22;22957;50.824;4.360;2023-04-03T10:00:23;10.70;99.90
2391;DHT22;22957;50.824;4.360;2023-04-03T10:02:52;9.10;99.90
2391;DHT22;22957;50.824;4.360;2023-04-03T10:08:10;9.70;99.90
2391;DHT22;22957;50.824;4.360;2023-04-03T10:10:37;9.30;99.90
2391;DHT22;22957;50.824;4.360;2023-04-03T10:13:09;10.60;99.90
2391;DHT22;22957;50.824;4.360;2023-04-03T10:15:42;11.20;99.90
2391;DHT22;22957;50.824;4.360;2023-04-03T10:18:39;11.00;99.90
2391;DHT22;22957;50.824;4.360;2023-04-03T10:24:02;9.60;99.90
2391;DHT22;22957;50.824;4.360;2023-04-03T10:34:42;8.50;99.90
2391;DHT22;22957;50.824;4.360;2023-04-03T10:37:29;10.60;99.90
2391;DHT22;22957;50.824;4.360;2023-04-03T10:40:09;12.00;99.90
2391;DHT22;22957;50.824;4.360;2023-04-03T10:42:46;10.80;99.90
2391;DHT22;22957;50.824;4.360;2023-04-03T10:45:49;9.40;99.90
2391;DHT22;22957;50.824;4.360;2023-04-03T10:51:25;9.30;99.90
2391;DHT22;22957;50.824;4.360;2023-04-03T10:54:01;10.80;99.90
2391;DHT22;22957;50.824;4.360;2023-04-03T10:57:23;10.90;99.10
2391;DHT22;22957;50.824;4.360;2023-04-03T11:05:37;11.70;99.00
2391;DHT22;22957;50.824;4.360;2023-04-03T11:10:44;12.60;96.00
2391;DHT22;22957;50.824;4.360;2023-04-03T11:13:30;11.30;93.20
2391;DHT22;22957;50.824;4.360;2023-04-03T11:15:58;10.70;96.40
2391;DHT22;22957;50.824;4.360;2023-04-03T11:18:39;10.50;95.70
2391;DHT22;22957;50.824;4.360;2023-04-03T11:21:15;10.60;95.40
2391;DHT22;22957;50.824;4.360;2023-04-03T11:23:44;10.10;95.40
2391;DHT22;22957;50.824;4.360;2023-04-03T11:26:15;11.00;97.30
2391;DHT22;22957;50.824;4.360;2023-04-03T11:28:45;10.50;92.80
2391;DHT22;22957;50.824;4.360;2023-04-03T11:34:33;11.80;93.30
2391;DHT22;22957;50.824;4.360;2023-04-03T11:37:05;11.80;92.70
2391;DHT22;22957;50.824;4.360;2023-04-03T11:39:37;10.30;94.40
2391;DHT22;22957;50.824;4.360;2023-04-03T11:44:51;10.00;94.50
2391;DHT22;22957;50.824;4.360;2023-04-03T11:47:49;10.50;95.10
2391;DHT22;22957;50.824;4.360;2023-04-03T11:53:26;11.50;95.30
2391;DHT22;22957;50.824;4.360;2023-04-03T11:55:55;11.80;93.60
2391;DHT22;22957;50.824;4.360;2023-04-03T11:58:28;11.30;92.30
2391;DHT22;22957;50.824;4.360;2023-04-03T12:00:55;9.70;94.60
2391;DHT22;22957;50.824;4.360;2023-04-03T12:11:25;11.60;93.80
2391;DHT22;22957;50.824;4.360;2023-04-03T12:16:21;12.30;92.50
2391;DHT22;22957;50.824;4.360;2023-04-03T12:22:07;12.10;90.30
2391;DHT22;22957;50.824;4.360;2023-04-03T12:36:11;10.80;90.60
2391;DHT22;22957;50.824;4.360;2023-04-03T12:38:41;10.50;87.40
2391;DHT22;22957;50.824;4.360;2023-04-03T12:41:33;9.20;90.30
2391;DHT22;22957;50.824;4.360;2023-04-03T12:44:20;11.90;87.60
2391;DHT22;22957;50.824;4.360;2023-04-03T12:46:50;11.00;83.20
2391;DHT22;22957;50.824;4.360;2023-04-03T12:51:54;10.60;82.10
2391;DHT22;22957;50.824;4.360;2023-04-03T12:54:38;11.00;86.90
2391;DHT22;22957;50.824;4.360;2023-04-03T12:57:27;11.00;85.50
2391;DHT22;22957;50.824;4.360;2023-04-03T12:59:53;10.70;82.90
2391;DHT22;22957;50.824;4.360;2023-04-03T13:02:30;11.10;85.90
2391;DHT22;22957;50.824;4.360;2023-04-03T13:05:07;11.90;81.80
2391;DHT22;22957;50.824;4.360;2023-04-03T13:07:36;12.90;82.50
2391;DHT22;22957;50.824;4.360;2023-04-03T13:12:33;10.60;79.60
2391;DHT22;22957;50.824;4.360;2023-04-03T13:15:11;11.40;82.60
2391;DHT22;22957;50.824;4.360;2023-04-03T13:17:42;10.50;76.90
2391;DHT22;22957;50.824;4.360;2023-04-03T13:20:29;11.20;78.20
2391;DHT22;22957;50.824;4.360;2023-04-03T13:22:59;10.80;77.10
2391;DHT22;22957;50.824;4.360;2023-04-03T13:25:29;11.30;80.10
2391;DHT22;22957;50.824;4.360;2023-04-03T13:27:58;10.40;79.50
2391;DHT22;22957;50.824;4.360;2023-04-03T13:30:28;10.20;76.90
2391;DHT22;22957;50.824;4.360;2023-04-03T13:32:55;9.40;78.30
2391;DHT22;22957;50.824;4.360;2023-04-03T13:35:35;10.40;82.30
2391;DHT22;22957;50.824;4.360;2023-04-03T13:38:19;10.70;80.10
2391;DHT22;22957;50.824;4.360;2023-04-03T13:40:52;11.20;78.10
2391;DHT22;22957;50.824;4.360;2023-04-03T13:43:26;10.10;73.30
2391;DHT22;22957;50.824;4.360;2023-04-03T13:48:47;10.60;77.90
2391;DHT22;22957;50.824;4.360;2023-04-03T13:53:53;10.80;75.60
2391;DHT22;22957;50.824;4.360;2023-04-03T13:56:31;9.50;74.70
2391;DHT22;22957;50.824;4.360;2023-04-03T14:04:15;10.90;78.60
2391;DHT22;22957;50.824;4.360;2023-04-03T14:06:42;12.00;79.80
2391;DHT22;22957;50.824;4.360;2023-04-03T14:09:09;11.60;76.00
2391;DHT22;22957;50.824;4.360;2023-04-03T14:11:35;11.20;77.10
2391;DHT22;22957;50.824;4.360;2023-04-03T14:14:06;11.20;78.10
2391;DHT22;22957;50.824;4.360;2023-04-03T14:16:34;10.00;79.40
2391;DHT22;22957;50.824;4.360;2023-04-03T14:19:02;10.40;80.70
2391;DHT22;22957;50.824;4.360;2023-04-03T14:21:28;10.70;80.10
2391;DHT22;22957;50.824;4.360;2023-04-03T14:23:54;10.90;77.70
2391;DHT22;22957;50.824;4.360;2023-04-03T14:26:22;10.30;78.30
2391;DHT22;22957;50.824;4.360;2023-04-03T14:28:51;10.10;80.00
2391;DHT22;22957;50.824;4.360;2023-04-03T14:31:19;10.60;80.80
2391;DHT22;22957;50.824;4.360;2023-04-03T14:33:46;11.40;78.40
2391;DHT22;22957;50.824;4.360;2023-04-03T14:36:18;11.10;74.60
2391;DHT22;22957;50.824;4.360;2023-04-03T14:38:45;11.00;75.30
2391;DHT22;22957;50.824;4.360;2023-04-03T14:41:18;12.40;76.60
2391;DHT22;22957;50.824;4.360;2023-04-03T14:43:45;10.60;75.00
2391;DHT22;22957;50.824;4.360;2023-04-03T14:46:35;11.70;78.70
2391;DHT22;22957;50.824;4.360;2023-04-03T14:49:06;10.90;74.20
2391;DHT22;22957;50.824;4.360;2023-04-03T14:51:42;10.90;77.00
2391;DHT22;22957;50.824;4.360;2023-04-03T14:54:14;11.60;78.30
2391;DHT22;22957;50.824;4.360;2023-04-03T14:56:40;10.50;74.80
2391;DHT22;22957;50.824;4.360;2023-04-03T14:59:11;11.10;77.20
2391;DHT22;22957;50.824;4.360;2023-04-03T15:01:36;11.60;78.60
2391;DHT22;22957;50.824;4.360;2023-04-03T15:04:14;11.50;80.10
2391;DHT22;22957;50.824;4.360;2023-04-03T15:06:43;10.80;78.10
2391;DHT22;22957;50.824;4.360;2023-04-03T15:09:19;10.10;80.70
2391;DHT22;22957;50.824;4.360;2023-04-03T15:11:45;11.30;79.80
2391;DHT22;22957;50.824;4.360;2023-04-03T15:14:11;11.20;78.60
2391;DHT22;22957;50.824;4.360;2023-04-03T15:16:36;10.80;78.10
2391;DHT22;22957;50.824;4.360;2023-04-03T15:19:02;10.80;76.20
2391;DHT22;22957;50.824;4.360;2023-04-03T15:21:28;11.60;78.20
2391;DHT22;22957;50.824;4.360;2023-04-03T15:23:53;12.20;77.60
2391;DHT22;22957;50.824;4.360;2023-04-03T15:26:19;11.50;70.90
2391;DHT22;22957;50.824;4.360;2023-04-03T15:28:46;10.60;73.30
2391;DHT22;22957;50.824;4.360;2023-04-03T15:31:12;10.20;69.20
2391;DHT22;22957;50.824;4.360;2023-04-03T15:33:39;9.60;71.50
2391;DHT22;22957;50.824;4.360;2023-04-03T15:36:05;9.90;78.00
2391;DHT22;22957;50.824;4.360;2023-04-03T15:38:31;10.70;75.10
2391;DHT22;22957;50.824;4.360;2023-04-03T15:40:58;10.60;76.50
2391;DHT22;22957;50.824;4.360;2023-04-03T15:43:24;10.90;76.10
2391;DHT22;22957;50.824;4.360;2023-04-03T15:45:49;10.00;71.30
2391;DHT22;22957;50.824;4.360;2023-04-03T15:48:16;10.10;76.60
2391;DHT22;22957;50.824;4.360;2023-04-03T15:50:43;10.70;73.40
2391;DHT22;22957;50.824;4.360;2023-04-03T15:53:09;10.60;74.70
2391;DHT22;22957;50.824;4.360;2023-04-03T15:55:37;9.90;75.30
2391;DHT22;22957;50.824;4.360;2023-04-03T15:58:03;9.60;76.30
2391;DHT22;22957;50.824;4.360;2023-04-03T16:00:30;10.00;78.40
2391;DHT22;22957;50.824;4.360;2023-04-03T16:03:04;10.00;78.90
2391;DHT22;22957;50.824;4.360;2023-04-03T16:05:30;10.00;76.00
2391;DHT22;22957;50.824;4.360;2023-04-03T16:07:58;10.30;78.90
2391;DHT22;22957;50.824;4.360;2023-04-03T16:10:24;10.40;78.70
2391;DHT22;22957;50.824;4.360;2023-04-03T16:12:50;10.40;81.50
2391;DHT22;22957;50.824;4.360;2023-04-03T16:15:16;10.20;80.30
2391;DHT22;22957;50.824;4.360;2023-04-03T16:17:41;10.20;81.10
2391;DHT22;22957;50.824;4.360;2023-04-03T16:20:11;10.40;81.90
2391;DHT22;22957;50.824;4.360;2023-04-03T16:22:37;9.80;80.20
2391;DHT22;22957;50.824;4.360;2023-04-03T16:25:06;9.60;81.80
2391;DHT22;22957;50.824;4.360;2023-04-03T16:27:32;10.00;83.10
2391;DHT22;22957;50.824;4.360;2023-04-03T16:29:57;10.60;83.60
2391;DHT22;22957;50.824;4.360;2023-04-03T16:32:26;11.50;84.60
2391;DHT22;22957;50.824;4.360;2023-04-03T16:34:52;11.10;83.40
2391;DHT22;22957;50.824;4.360;2023-04-03T16:37:19;11.50;82.90
2391;DHT22;22957;50.824;4.360;2023-04-03T16:39:45;10.20;83.90
2391;DHT22;22957;50.824;4.360;2023-04-03T16:42:11;10.00;81.70
2391;DHT22;22957;50.824;4.360;2023-04-03T16:44:37;9.80;84.50
2391;DHT22;22957;50.824;4.360;2023-04-03T16:47:03;9.60;85.60
2391;DHT22;22957;50.824;4.360;2023-04-03T16:49:29;9.40;86.10
2391;DHT22;22957;50.824;4.360;2023-04-03T16:52:00;10.10;86.10
2391;DHT22;22957;50.824;4.360;2023-04-03T16:54:26;9.60;87.20
2391;DHT22;22957;50.824;4.360;2023-04-03T16:56:52;10.00;85.50
2391;DHT22;22957;50.824;4.360;2023-04-03T16:59:17;9.80;86.20
2391;DHT22;22957;50.824;4.360;2023-04-03T17:01:44;9.80;88.00
2391;DHT22;22957;50.824;4.360;2023-04-03T17:04:10;9.90;87.60
2391;DHT22;22957;50.824;4.360;2023-04-03T17:06:36;9.60;86.80
2391;DHT22;22957;50.824;4.360;2023-04-03T17:09:03;9.90;87.90
2391;DHT22;22957;50.824;4.360;2023-04-03T17:11:30;9.50;87.00
2391;DHT22;22957;50.824;4.360;2023-04-03T17:13:56;9.50;87.80
2391;DHT22;22957;50.824;4.360;2023-04-03T17:16:23;9.40;88.30
2391;DHT22;22957;50.824;4.360;2023-04-03T17:18:49;9.50;87.50
2391;DHT22;22957;50.824;4.360;2023-04-03T17:21:15;9.60;88.50
2391;DHT22;22957;50.824;4.360;2023-04-03T17:23:47;9.40;88.20
2391;DHT22;22957;50.824;4.360;2023-04-03T17:26:14;10.00;90.10
2391;DHT22;22957;50.824;4.360;2023-04-03T17:28:40;9.60;88.00
2391;DHT22;22957;50.824;4.360;2023-04-03T17:31:06;9.20;88.00
2391;DHT22;22957;50.824;4.360;2023-04-03T17:33:32;9.50;87.80
2391;DHT22;22957;50.824;4.360;2023-04-03T17:36:00;9.50;88.60
2391;DHT22;22957;50.824;4.360;2023-04-03T17:38:28;9.70;90.50